sensor_id;sensor_type;location;lat;lon;timestamp;pressure;altitude;pressure_sealevel;temperature;humidity
58919;BME280;44704;50.122;19.932;2022-10-16T00:01:17;98588.90;;;13.48;72.76
58919;BME280;44704;50.122;19.932;2022-10-16T00:03:45;98586.70;;;13.48;72.59
58919;BME280;44704;50.122;19.932;2022-10-16T00:06:12;98587.20;;;13.48;72.53
58919;BME280;44704;50.122;19.932;2022-10-16T00:08:40;98590.88;;;13.49;72.70
58919;BME280;44704;50.122;19.932;2022-10-16T00:11:13;98588.15;;;13.50;72.84
58919;BME280;44704;50.122;19.932;2022-10-16T00:13:41;98587.06;;;13.50;72.91
58919;BME280;44704;50.122;19.932;2022-10-16T00:16:10;98593.06;;;13.51;72.89
58919;BME280;44704;50.122;19.932;2022-10-16T00:18:37;98596.52;;;13.50;72.68
58919;BME280;44704;50.122;19.932;2022-10-16T00:21:07;98603.74;;;13.51;72.83
58919;BME280;44704;50.122;19.932;2022-10-16T00:23:35;98605.65;;;13.51;73.12
58919;BME280;44704;50.122;19.932;2022-10-16T00:26:06;98610.73;;;13.48;73.59
58919;BME280;44704;50.122;19.932;2022-10-16T00:28:34;98606.20;;;13.45;73.70
58919;BME280;44704;50.122;19.932;2022-10-16T00:31:05;98613.59;;;13.43;73.58
58919;BME280;44704;50.122;19.932;2022-10-16T00:33:33;98609.41;;;13.42;73.68
58919;BME280;44704;50.122;19.932;2022-10-16T00:36:01;98614.11;;;13.41;74.03
58919;BME280;44704;50.122;19.932;2022-10-16T00:38:29;98610.61;;;13.41;74.22
58919;BME280;44704;50.122;19.932;2022-10-16T00:40:56;98614.23;;;13.41;74.43
58919;BME280;44704;50.122;19.932;2022-10-16T00:46:21;98623.29;;;13.40;74.65
58919;BME280;44704;50.122;19.932;2022-10-16T00:51:22;98621.66;;;13.40;74.55
58919;BME280;44704;50.122;19.932;2022-10-16T00:53:49;98622.96;;;13.39;74.58
58919;BME280;44704;50.122;19.932;2022-10-16T00:56:17;98623.06;;;13.39;74.90
58919;BME280;44704;50.122;19.932;2022-10-16T00:58:44;98622.13;;;13.38;75.01
58919;BME280;44704;50.122;19.932;2022-10-16T01:01:12;98619.48;;;13.36;75.08
58919;BME280;44704;50.122;19.932;2022-10-16T01:03:39;98618.48;;;13.35;75.10
58919;BME280;44704;50.122;19.932;2022-10-16T01:11:44;98625.89;;;13.32;75.19
58919;BME280;44704;50.122;19.932;2022-10-16T01:14:22;98624.61;;;13.31;75.31
58919;BME280;44704;50.122;19.932;2022-10-16T01:17:00;98628.40;;;13.28;75.77
58919;BME280;44704;50.122;19.932;2022-10-16T01:22:02;98631.55;;;13.26;75.82
58919;BME280;44704;50.122;19.932;2022-10-16T01:24:39;98628.73;;;13.23;75.93
58919;BME280;44704;50.122;19.932;2022-10-16T01:27:15;98627.30;;;13.22;75.94
58919;BME280;44704;50.122;19.932;2022-10-16T01:29:54;98634.02;;;13.20;76.06
58919;BME280;44704;50.122;19.932;2022-10-16T01:32:33;98628.26;;;13.19;76.15
58919;BME280;44704;50.122;19.932;2022-10-16T01:35:11;98627.25;;;13.17;76.56
58919;BME280;44704;50.122;19.932;2022-10-16T01:37:54;98637.66;;;13.14;76.68
58919;BME280;44704;50.122;19.932;2022-10-16T01:40:25;98636.42;;;13.10;76.41
58919;BME280;44704;50.122;19.932;2022-10-16T01:42:59;98632.70;;;13.09;76.51
58919;BME280;44704;50.122;19.932;2022-10-16T01:45:28;98631.34;;;13.10;76.61
58919;BME280;44704;50.122;19.932;2022-10-16T01:47:56;98633.05;;;13.11;76.67
58919;BME280;44704;50.122;19.932;2022-10-16T01:50:24;98634.98;;;13.09;76.70
58919;BME280;44704;50.122;19.932;2022-10-16T01:52:52;98639.70;;;13.09;76.79
58919;BME280;44704;50.122;19.932;2022-10-16T01:55:26;98639.92;;;13.09;76.52
58919;BME280;44704;50.122;19.932;2022-10-16T01:57:57;98634.83;;;13.09;76.24
58919;BME280;44704;50.122;19.932;2022-10-16T02:00:26;98641.67;;;13.09;76.19
58919;BME280;44704;50.122;19.932;2022-10-16T02:02:54;98642.59;;;13.09;76.21
58919;BME280;44704;50.122;19.932;2022-10-16T02:07:54;98640.48;;;13.11;76.10
58919;BME280;44704;50.122;19.932;2022-10-16T02:10:21;98639.95;;;13.12;76.15
58919;BME280;44704;50.122;19.932;2022-10-16T02:12:58;98642.95;;;13.13;76.17
58919;BME280;44704;50.122;19.932;2022-10-16T02:15:27;98642.63;;;13.12;76.47
58919;BME280;44704;50.122;19.932;2022-10-16T02:17:54;98642.46;;;13.12;76.67
58919;BME280;44704;50.122;19.932;2022-10-16T02:20:27;98641.59;;;13.12;76.55
58919;BME280;44704;50.122;19.932;2022-10-16T02:23:00;98640.05;;;13.11;76.49
58919;BME280;44704;50.122;19.932;2022-10-16T02:25:34;98643.80;;;13.10;76.30
58919;BME280;44704;50.122;19.932;2022-10-16T02:28:07;98643.36;;;13.09;76.28
58919;BME280;44704;50.122;19.932;2022-10-16T02:33:15;98646.95;;;13.07;76.43
58919;BME280;44704;50.122;19.932;2022-10-16T02:35:44;98650.99;;;13.07;76.58
58919;BME280;44704;50.122;19.932;2022-10-16T02:38:12;98647.80;;;13.06;76.68
58919;BME280;44704;50.122;19.932;2022-10-16T02:40:41;98649.21;;;13.05;76.54
58919;BME280;44704;50.122;19.932;2022-10-16T02:43:09;98653.04;;;13.04;76.69
58919;BME280;44704;50.122;19.932;2022-10-16T02:45:36;98654.98;;;13.03;76.67
58919;BME280;44704;50.122;19.932;2022-10-16T02:48:03;98652.99;;;13.00;76.75
58919;BME280;44704;50.122;19.932;2022-10-16T02:50:30;98649.20;;;12.99;76.87
58919;BME280;44704;50.122;19.932;2022-10-16T02:52:57;98646.19;;;12.98;76.81
58919;BME280;44704;50.122;19.932;2022-10-16T02:55:24;98645.11;;;12.94;76.64
58919;BME280;44704;50.122;19.932;2022-10-16T02:57:51;98644.46;;;12.91;76.79
58919;BME280;44704;50.122;19.932;2022-10-16T03:00:17;98646.61;;;12.87;76.94
58919;BME280;44704;50.122;19.932;2022-10-16T03:02:44;98652.75;;;12.84;76.84
58919;BME280;44704;50.122;19.932;2022-10-16T03:05:11;98656.59;;;12.81;76.92
58919;BME280;44704;50.122;19.932;2022-10-16T03:07:38;98654.56;;;12.77;77.39
58919;BME280;44704;50.122;19.932;2022-10-16T03:10:05;98658.35;;;12.72;78.54
58919;BME280;44704;50.122;19.932;2022-10-16T03:12:32;98657.92;;;12.69;78.97
58919;BME280;44704;50.122;19.932;2022-10-16T03:14:59;98657.02;;;12.66;79.20
58919;BME280;44704;50.122;19.932;2022-10-16T03:17:26;98655.34;;;12.63;79.43
58919;BME280;44704;50.122;19.932;2022-10-16T03:19:53;98654.35;;;12.59;79.59
58919;BME280;44704;50.122;19.932;2022-10-16T03:22:20;98652.98;;;12.54;79.47
58919;BME280;44704;50.122;19.932;2022-10-16T03:24:47;98655.19;;;12.48;79.25
58919;BME280;44704;50.122;19.932;2022-10-16T03:27:13;98654.45;;;12.42;78.95
58919;BME280;44704;50.122;19.932;2022-10-16T03:29:40;98667.42;;;12.36;79.22
58919;BME280;44704;50.122;19.932;2022-10-16T03:32:07;98667.07;;;12.30;79.12
58919;BME280;44704;50.122;19.932;2022-10-16T03:34:34;98672.42;;;12.26;79.05
58919;BME280;44704;50.122;19.932;2022-10-16T03:37:01;98675.59;;;12.23;79.29
58919;BME280;44704;50.122;19.932;2022-10-16T03:39:28;98682.05;;;12.20;79.31
58919;BME280;44704;50.122;19.932;2022-10-16T03:41:55;98683.16;;;12.18;79.49
58919;BME280;44704;50.122;19.932;2022-10-16T03:44:21;98689.48;;;12.13;79.65
58919;BME280;44704;50.122;19.932;2022-10-16T03:46:48;98690.76;;;12.11;79.69
58919;BME280;44704;50.122;19.932;2022-10-16T03:49:15;98693.73;;;12.09;79.87
58919;BME280;44704;50.122;19.932;2022-10-16T03:51:42;98700.09;;;12.08;80.39
58919;BME280;44704;50.122;19.932;2022-10-16T03:54:10;98710.52;;;12.07;80.45
58919;BME280;44704;50.122;19.932;2022-10-16T03:56:37;98716.14;;;12.07;80.66
58919;BME280;44704;50.122;19.932;2022-10-16T03:59:04;98710.89;;;12.07;80.67
58919;BME280;44704;50.122;19.932;2022-10-16T04:01:31;98711.11;;;12.07;81.05
58919;BME280;44704;50.122;19.932;2022-10-16T04:03:58;98706.20;;;12.08;81.27
58919;BME280;44704;50.122;19.932;2022-10-16T04:06:24;98711.14;;;12.08;81.36
58919;BME280;44704;50.122;19.932;2022-10-16T04:08:51;98712.10;;;12.08;81.34
58919;BME280;44704;50.122;19.932;2022-10-16T04:11:18;98713.13;;;12.07;81.64
58919;BME280;44704;50.122;19.932;2022-10-16T04:13:45;98714.31;;;12.05;81.47
58919;BME280;44704;50.122;19.932;2022-10-16T04:16:12;98717.29;;;12.04;81.48
58919;BME280;44704;50.122;19.932;2022-10-16T04:18:39;98718.64;;;12.03;81.55
58919;BME280;44704;50.122;19.932;2022-10-16T04:21:06;98715.19;;;12.03;81.42
58919;BME280;44704;50.122;19.932;2022-10-16T04:23:33;98719.13;;;12.04;81.38
58919;BME280;44704;50.122;19.932;2022-10-16T04:26:00;98716.45;;;12.03;81.25
58919;BME280;44704;50.122;19.932;2022-10-16T04:28:27;98716.59;;;12.02;81.34
58919;BME280;44704;50.122;19.932;2022-10-16T04:30:54;98717.79;;;12.02;81.24
58919;BME280;44704;50.122;19.932;2022-10-16T04:33:21;98718.30;;;12.00;81.36
58919;BME280;44704;50.122;19.932;2022-10-16T04:35:48;98722.58;;;11.97;81.13
58919;BME280;44704;50.122;19.932;2022-10-16T04:38:15;98724.52;;;11.92;81.04
58919;BME280;44704;50.122;19.932;2022-10-16T04:40:42;98722.16;;;11.89;81.15
58919;BME280;44704;50.122;19.932;2022-10-16T04:43:09;98726.13;;;11.86;81.10
58919;BME280;44704;50.122;19.932;2022-10-16T04:45:37;98721.48;;;11.82;81.19
58919;BME280;44704;50.122;19.932;2022-10-16T04:48:03;98720.91;;;11.77;81.22
58919;BME280;44704;50.122;19.932;2022-10-16T04:50:30;98727.55;;;11.73;81.38
58919;BME280;44704;50.122;19.932;2022-10-16T04:53:06;98727.20;;;11.69;80.97
58919;BME280;44704;50.122;19.932;2022-10-16T04:55:33;98731.39;;;11.66;81.48
58919;BME280;44704;50.122;19.932;2022-10-16T04:58:00;98731.80;;;11.61;81.18
58919;BME280;44704;50.122;19.932;2022-10-16T05:00:27;98731.96;;;11.58;81.14
58919;BME280;44704;50.122;19.932;2022-10-16T05:02:54;98734.64;;;11.55;81.10
58919;BME280;44704;50.122;19.932;2022-10-16T05:05:21;98739.62;;;11.52;81.43
58919;BME280;44704;50.122;19.932;2022-10-16T05:07:48;98741.23;;;11.51;81.28
58919;BME280;44704;50.122;19.932;2022-10-16T05:10:16;98739.63;;;11.50;81.60
58919;BME280;44704;50.122;19.932;2022-10-16T05:12:44;98736.70;;;11.49;81.84
58919;BME280;44704;50.122;19.932;2022-10-16T05:15:10;98737.45;;;11.48;82.02
58919;BME280;44704;50.122;19.932;2022-10-16T05:17:37;98740.09;;;11.46;81.94
58919;BME280;44704;50.122;19.932;2022-10-16T05:20:05;98732.91;;;11.44;82.28
58919;BME280;44704;50.122;19.932;2022-10-16T05:22:32;98736.16;;;11.42;81.85
58919;BME280;44704;50.122;19.932;2022-10-16T05:24:58;98735.81;;;11.42;82.14
58919;BME280;44704;50.122;19.932;2022-10-16T05:27:25;98741.45;;;11.41;82.36
58919;BME280;44704;50.122;19.932;2022-10-16T05:29:52;98742.05;;;11.40;82.33
58919;BME280;44704;50.122;19.932;2022-10-16T05:32:19;98744.47;;;11.41;82.41
58919;BME280;44704;50.122;19.932;2022-10-16T05:34:46;98748.44;;;11.43;82.42
58919;BME280;44704;50.122;19.932;2022-10-16T05:37:13;98753.36;;;11.44;82.21
58919;BME280;44704;50.122;19.932;2022-10-16T05:39:39;98750.77;;;11.45;82.48
58919;BME280;44704;50.122;19.932;2022-10-16T05:42:06;98748.40;;;11.48;82.49
58919;BME280;44704;50.122;19.932;2022-10-16T05:44:33;98749.58;;;11.49;82.86
58919;BME280;44704;50.122;19.932;2022-10-16T05:47:00;98746.05;;;11.51;83.00
58919;BME280;44704;50.122;19.932;2022-10-16T05:49:27;98744.85;;;11.53;83.30
58919;BME280;44704;50.122;19.932;2022-10-16T05:51:54;98751.23;;;11.56;83.42
58919;BME280;44704;50.122;19.932;2022-10-16T05:54:21;98747.83;;;11.60;83.38
58919;BME280;44704;50.122;19.932;2022-10-16T05:56:47;98749.30;;;11.66;83.58
58919;BME280;44704;50.122;19.932;2022-10-16T05:59:14;98747.95;;;11.71;83.69
58919;BME280;44704;50.122;19.932;2022-10-16T06:01:41;98753.06;;;11.75;83.35
58919;BME280;44704;50.122;19.932;2022-10-16T06:04:09;98753.87;;;11.81;83.45
58919;BME280;44704;50.122;19.932;2022-10-16T06:06:36;98754.44;;;11.85;83.44
58919;BME280;44704;50.122;19.932;2022-10-16T06:09:03;98763.41;;;11.89;83.67
58919;BME280;44704;50.122;19.932;2022-10-16T06:11:31;98772.63;;;11.86;82.43
58919;BME280;44704;50.122;19.932;2022-10-16T06:14:00;98778.32;;;11.78;82.04
58919;BME280;44704;50.122;19.932;2022-10-16T06:16:36;98785.81;;;11.67;82.03
58919;BME280;44704;50.122;19.932;2022-10-16T06:19:04;98787.83;;;11.58;82.31
58919;BME280;44704;50.122;19.932;2022-10-16T06:21:32;98788.52;;;11.52;82.74
58919;BME280;44704;50.122;19.932;2022-10-16T06:23:59;98790.14;;;11.50;82.89
58919;BME280;44704;50.122;19.932;2022-10-16T06:26:29;98794.09;;;11.48;83.22
58919;BME280;44704;50.122;19.932;2022-10-16T06:28:58;98796.00;;;11.49;83.78
58919;BME280;44704;50.122;19.932;2022-10-16T06:31:26;98801.77;;;11.54;83.85
58919;BME280;44704;50.122;19.932;2022-10-16T06:33:54;98810.73;;;11.60;83.74
58919;BME280;44704;50.122;19.932;2022-10-16T06:36:22;98813.48;;;11.70;83.89
58919;BME280;44704;50.122;19.932;2022-10-16T06:38:49;98817.94;;;11.80;84.02
58919;BME280;44704;50.122;19.932;2022-10-16T06:41:18;98821.02;;;11.92;84.26
58919;BME280;44704;50.122;19.932;2022-10-16T06:43:45;98821.71;;;12.00;83.88
58919;BME280;44704;50.122;19.932;2022-10-16T06:46:15;98823.42;;;12.07;83.97
58919;BME280;44704;50.122;19.932;2022-10-16T06:48:42;98834.78;;;12.14;83.83
58919;BME280;44704;50.122;19.932;2022-10-16T06:51:14;98838.20;;;12.19;84.43
58919;BME280;44704;50.122;19.932;2022-10-16T06:53:46;98842.75;;;12.22;84.75
58919;BME280;44704;50.122;19.932;2022-10-16T06:56:20;98843.61;;;12.28;84.85
58919;BME280;44704;50.122;19.932;2022-10-16T06:58:48;98846.33;;;12.34;84.77
58919;BME280;44704;50.122;19.932;2022-10-16T07:01:18;98844.88;;;12.41;84.41
58919;BME280;44704;50.122;19.932;2022-10-16T07:03:46;98844.99;;;12.49;84.20
58919;BME280;44704;50.122;19.932;2022-10-16T07:06:16;98843.91;;;12.60;84.46
58919;BME280;44704;50.122;19.932;2022-10-16T07:08:44;98844.84;;;12.70;84.28
58919;BME280;44704;50.122;19.932;2022-10-16T07:11:14;98843.91;;;12.77;84.00
58919;BME280;44704;50.122;19.932;2022-10-16T07:13:42;98851.49;;;12.87;83.99
58919;BME280;44704;50.122;19.932;2022-10-16T07:16:12;98847.69;;;12.96;83.90
58919;BME280;44704;50.122;19.932;2022-10-16T07:18:39;98843.70;;;13.04;83.55
58919;BME280;44704;50.122;19.932;2022-10-16T07:21:12;98847.34;;;13.10;83.45
58919;BME280;44704;50.122;19.932;2022-10-16T07:23:41;98848.14;;;13.15;83.22
58919;BME280;44704;50.122;19.932;2022-10-16T07:26:09;98851.56;;;13.19;83.21
58919;BME280;44704;50.122;19.932;2022-10-16T07:28:36;98851.35;;;13.27;83.01
58919;BME280;44704;50.122;19.932;2022-10-16T07:31:10;98847.77;;;13.35;82.87
58919;BME280;44704;50.122;19.932;2022-10-16T07:33:38;98849.80;;;13.44;82.74
58919;BME280;44704;50.122;19.932;2022-10-16T07:36:06;98851.98;;;13.53;82.58
58919;BME280;44704;50.122;19.932;2022-10-16T07:38:34;98849.83;;;13.63;82.53
58919;BME280;44704;50.122;19.932;2022-10-16T07:41:04;98846.70;;;13.73;82.40
58919;BME280;44704;50.122;19.932;2022-10-16T07:43:31;98851.52;;;13.82;81.93
58919;BME280;44704;50.122;19.932;2022-10-16T07:45:59;98852.16;;;13.90;81.50
58919;BME280;44704;50.122;19.932;2022-10-16T07:48:28;98854.05;;;13.99;81.25
58919;BME280;44704;50.122;19.932;2022-10-16T07:50:59;98858.27;;;14.05;80.74
58919;BME280;44704;50.122;19.932;2022-10-16T07:53:27;98858.48;;;14.14;80.61
58919;BME280;44704;50.122;19.932;2022-10-16T07:55:58;98856.97;;;14.23;80.59
58919;BME280;44704;50.122;19.932;2022-10-16T07:58:27;98859.97;;;14.32;80.29
58919;BME280;44704;50.122;19.932;2022-10-16T08:00:55;98860.59;;;14.40;79.68
58919;BME280;44704;50.122;19.932;2022-10-16T08:03:23;98859.94;;;14.47;79.30
58919;BME280;44704;50.122;19.932;2022-10-16T08:05:51;98863.20;;;14.55;78.50
58919;BME280;44704;50.122;19.932;2022-10-16T08:08:18;98866.13;;;14.62;78.27
58919;BME280;44704;50.122;19.932;2022-10-16T08:10:45;98869.74;;;14.69;78.00
58919;BME280;44704;50.122;19.932;2022-10-16T08:13:12;98871.66;;;14.75;77.89
58919;BME280;44704;50.122;19.932;2022-10-16T08:15:42;98872.55;;;14.82;77.61
58919;BME280;44704;50.122;19.932;2022-10-16T08:18:11;98872.38;;;14.89;77.42
58919;BME280;44704;50.122;19.932;2022-10-16T08:20:38;98868.25;;;14.95;77.07
58919;BME280;44704;50.122;19.932;2022-10-16T08:23:06;98877.69;;;15.04;76.65
58919;BME280;44704;50.122;19.932;2022-10-16T08:25:36;98875.84;;;15.14;76.49
58919;BME280;44704;50.122;19.932;2022-10-16T08:28:05;98875.83;;;15.24;76.05
58919;BME280;44704;50.122;19.932;2022-10-16T08:30:32;98873.74;;;15.32;75.57
58919;BME280;44704;50.122;19.932;2022-10-16T08:32:59;98874.99;;;15.41;75.05
58919;BME280;44704;50.122;19.932;2022-10-16T08:35:26;98875.77;;;15.50;73.80
58919;BME280;44704;50.122;19.932;2022-10-16T08:37:53;98875.33;;;15.62;74.07
58919;BME280;44704;50.122;19.932;2022-10-16T08:40:31;98878.35;;;15.74;73.88
58919;BME280;44704;50.122;19.932;2022-10-16T08:48:56;98886.02;;;16.42;71.26
58919;BME280;44704;50.122;19.932;2022-10-16T08:51:33;98887.75;;;16.65;70.95
58919;BME280;44704;50.122;19.932;2022-10-16T08:56:30;98886.23;;;16.98;69.81
58919;BME280;44704;50.122;19.932;2022-10-16T08:58:58;98887.20;;;17.10;69.14
58919;BME280;44704;50.122;19.932;2022-10-16T09:01:52;98887.23;;;17.22;68.81
58919;BME280;44704;50.122;19.932;2022-10-16T09:10:01;98892.61;;;17.53;67.42
58919;BME280;44704;50.122;19.932;2022-10-16T09:12:51;98897.55;;;17.61;67.11
58919;BME280;44704;50.122;19.932;2022-10-16T09:18:06;98895.10;;;17.71;67.00
58919;BME280;44704;50.122;19.932;2022-10-16T09:23:13;98898.25;;;17.83;66.75
58919;BME280;44704;50.122;19.932;2022-10-16T09:25:45;98900.15;;;17.93;66.78
58919;BME280;44704;50.122;19.932;2022-10-16T09:28:15;98897.55;;;18.07;66.51
58919;BME280;44704;50.122;19.932;2022-10-16T09:30:43;98899.35;;;18.21;66.13
58919;BME280;44704;50.122;19.932;2022-10-16T09:33:12;98899.94;;;18.31;65.45
58919;BME280;44704;50.122;19.932;2022-10-16T09:35:43;98895.05;;;18.38;64.70
58919;BME280;44704;50.122;19.932;2022-10-16T09:40:51;98897.39;;;18.52;64.30
58919;BME280;44704;50.122;19.932;2022-10-16T09:46:06;98895.02;;;18.66;64.03
58919;BME280;44704;50.122;19.932;2022-10-16T09:48:37;98900.98;;;18.68;63.83
58919;BME280;44704;50.122;19.932;2022-10-16T09:51:06;98897.21;;;18.68;63.64
58919;BME280;44704;50.122;19.932;2022-10-16T09:53:44;98895.61;;;18.69;63.65
58919;BME280;44704;50.122;19.932;2022-10-16T09:56:22;98897.87;;;18.69;63.77
58919;BME280;44704;50.122;19.932;2022-10-16T09:58:55;98903.11;;;18.70;63.92
58919;BME280;44704;50.122;19.932;2022-10-16T10:01:28;98900.42;;;18.74;64.09
58919;BME280;44704;50.122;19.932;2022-10-16T10:03:57;98904.58;;;18.82;64.37
58919;BME280;44704;50.122;19.932;2022-10-16T10:06:33;98905.73;;;18.90;63.93
58919;BME280;44704;50.122;19.932;2022-10-16T10:09:06;98905.10;;;18.94;63.93
58919;BME280;44704;50.122;19.932;2022-10-16T10:11:44;98905.23;;;18.99;62.99
58919;BME280;44704;50.122;19.932;2022-10-16T10:16:47;98903.14;;;19.09;62.68
58919;BME280;44704;50.122;19.932;2022-10-16T10:19:23;98904.40;;;19.16;62.21
58919;BME280;44704;50.122;19.932;2022-10-16T10:21:50;98907.46;;;19.25;62.04
58919;BME280;44704;50.122;19.932;2022-10-16T10:24:19;98909.22;;;19.32;62.61
58919;BME280;44704;50.122;19.932;2022-10-16T10:26:59;98909.65;;;19.39;62.13
58919;BME280;44704;50.122;19.932;2022-10-16T10:29:35;98910.61;;;19.46;61.55
58919;BME280;44704;50.122;19.932;2022-10-16T10:32:28;98904.58;;;19.53;61.63
58919;BME280;44704;50.122;19.932;2022-10-16T10:42:54;98898.52;;;19.96;61.40
58919;BME280;44704;50.122;19.932;2022-10-16T10:45:27;98900.97;;;20.07;60.70
58919;BME280;44704;50.122;19.932;2022-10-16T10:50:50;98900.38;;;20.22;60.20
58919;BME280;44704;50.122;19.932;2022-10-16T10:56:50;98895.82;;;20.32;59.07
58919;BME280;44704;50.122;19.932;2022-10-16T10:59:50;98890.84;;;20.36;59.33
58919;BME280;44704;50.122;19.932;2022-10-16T11:05:16;98887.14;;;20.36;58.51
58919;BME280;44704;50.122;19.932;2022-10-16T11:11:02;98887.16;;;20.34;59.05
58919;BME280;44704;50.122;19.932;2022-10-16T11:13:35;98887.92;;;20.35;59.47
58919;BME280;44704;50.122;19.932;2022-10-16T11:16:18;98885.92;;;20.35;59.23
58919;BME280;44704;50.122;19.932;2022-10-16T11:21:54;98889.08;;;20.32;59.22
58919;BME280;44704;50.122;19.932;2022-10-16T11:24:35;98887.13;;;20.28;58.86
58919;BME280;44704;50.122;19.932;2022-10-16T11:27:07;98888.16;;;20.25;59.47
58919;BME280;44704;50.122;19.932;2022-10-16T11:29:35;98886.63;;;20.25;59.11
58919;BME280;44704;50.122;19.932;2022-10-16T11:32:25;98890.73;;;20.25;58.94
58919;BME280;44704;50.122;19.932;2022-10-16T11:35:05;98891.54;;;20.22;58.66
58919;BME280;44704;50.122;19.932;2022-10-16T11:37:41;98892.66;;;20.20;58.89
58919;BME280;44704;50.122;19.932;2022-10-16T11:40:21;98893.77;;;20.19;59.05
58919;BME280;44704;50.122;19.932;2022-10-16T11:43:22;98889.25;;;20.15;58.78
58919;BME280;44704;50.122;19.932;2022-10-16T11:45:55;98884.59;;;20.12;58.92
58919;BME280;44704;50.122;19.932;2022-10-16T11:48:57;98884.79;;;20.09;59.47
58919;BME280;44704;50.122;19.932;2022-10-16T11:51:47;98885.86;;;20.12;59.62
58919;BME280;44704;50.122;19.932;2022-10-16T11:54:42;98887.65;;;20.15;59.75
58919;BME280;44704;50.122;19.932;2022-10-16T11:59:56;98888.36;;;20.24;59.35
58919;BME280;44704;50.122;19.932;2022-10-16T12:02:53;98891.95;;;20.27;59.32
58919;BME280;44704;50.122;19.932;2022-10-16T12:05:35;98893.24;;;20.29;59.48
58919;BME280;44704;50.122;19.932;2022-10-16T12:08:11;98891.70;;;20.30;59.20
58919;BME280;44704;50.122;19.932;2022-10-16T12:10:41;98889.69;;;20.31;59.06
58919;BME280;44704;50.122;19.932;2022-10-16T12:13:46;98890.70;;;20.34;59.32
58919;BME280;44704;50.122;19.932;2022-10-16T12:18:45;98887.91;;;20.47;59.39
58919;BME280;44704;50.122;19.932;2022-10-16T12:21:14;98887.23;;;20.52;59.17
58919;BME280;44704;50.122;19.932;2022-10-16T12:23:51;98884.85;;;20.55;58.84
58919;BME280;44704;50.122;19.932;2022-10-16T12:26:27;98883.33;;;20.57;58.39
58919;BME280;44704;50.122;19.932;2022-10-16T12:28:55;98880.59;;;20.59;58.52
58919;BME280;44704;50.122;19.932;2022-10-16T12:31:22;98883.77;;;20.60;58.22
58919;BME280;44704;50.122;19.932;2022-10-16T12:33:59;98886.92;;;20.62;57.67
58919;BME280;44704;50.122;19.932;2022-10-16T12:36:32;98884.55;;;20.62;56.91
58919;BME280;44704;50.122;19.932;2022-10-16T12:38:59;98882.55;;;20.60;56.79
58919;BME280;44704;50.122;19.932;2022-10-16T12:43:54;98893.34;;;20.66;56.72
58919;BME280;44704;50.122;19.932;2022-10-16T12:46:24;98896.67;;;20.80;56.26
58919;BME280;44704;50.122;19.932;2022-10-16T12:48:51;98893.95;;;20.93;55.75
58919;BME280;44704;50.122;19.932;2022-10-16T12:54:17;98899.62;;;20.96;55.27
58919;BME280;44704;50.122;19.932;2022-10-16T12:59:55;98903.99;;;20.89;54.88
58919;BME280;44704;50.122;19.932;2022-10-16T13:05:35;98905.68;;;20.80;55.02
58919;BME280;44704;50.122;19.932;2022-10-16T13:11:05;98905.84;;;20.74;55.67
58919;BME280;44704;50.122;19.932;2022-10-16T13:19:38;98916.63;;;20.67;55.70
58919;BME280;44704;50.122;19.932;2022-10-16T13:24:55;98919.35;;;20.62;55.88
58919;BME280;44704;50.122;19.932;2022-10-16T13:27:30;98923.21;;;20.58;56.07
58919;BME280;44704;50.122;19.932;2022-10-16T13:30:30;98923.75;;;20.51;56.00
58919;BME280;44704;50.122;19.932;2022-10-16T13:33:02;98926.77;;;20.42;56.05
58919;BME280;44704;50.122;19.932;2022-10-16T13:35:33;98923.51;;;20.35;55.94
58919;BME280;44704;50.122;19.932;2022-10-16T13:38:17;98923.30;;;20.29;55.88
58919;BME280;44704;50.122;19.932;2022-10-16T13:41:05;98925.29;;;20.25;56.33
58919;BME280;44704;50.122;19.932;2022-10-16T13:43:35;98924.59;;;20.27;56.89
58919;BME280;44704;50.122;19.932;2022-10-16T13:46:12;98930.25;;;20.30;57.25
58919;BME280;44704;50.122;19.932;2022-10-16T13:48:39;98932.43;;;20.28;57.08
58919;BME280;44704;50.122;19.932;2022-10-16T13:51:18;98934.71;;;20.23;56.88
58919;BME280;44704;50.122;19.932;2022-10-16T13:53:45;98935.34;;;20.17;57.08
58919;BME280;44704;50.122;19.932;2022-10-16T13:56:15;98946.33;;;20.11;57.44
58919;BME280;44704;50.122;19.932;2022-10-16T13:58:42;98949.02;;;20.03;57.47
58919;BME280;44704;50.122;19.932;2022-10-16T14:01:25;98955.00;;;19.98;57.86
58919;BME280;44704;50.122;19.932;2022-10-16T14:03:53;98948.66;;;19.92;57.85
58919;BME280;44704;50.122;19.932;2022-10-16T14:06:21;98948.02;;;19.87;58.06
58919;BME280;44704;50.122;19.932;2022-10-16T14:08:56;98948.48;;;19.83;58.33
58919;BME280;44704;50.122;19.932;2022-10-16T14:11:25;98951.55;;;19.81;58.61
58919;BME280;44704;50.122;19.932;2022-10-16T14:13:53;98955.19;;;19.77;58.82
58919;BME280;44704;50.122;19.932;2022-10-16T14:16:23;98954.98;;;19.75;58.92
58919;BME280;44704;50.122;19.932;2022-10-16T14:18:57;98954.16;;;19.71;59.10
58919;BME280;44704;50.122;19.932;2022-10-16T14:21:24;98949.95;;;19.69;59.23
58919;BME280;44704;50.122;19.932;2022-10-16T14:23:53;98947.70;;;19.67;59.42
58919;BME280;44704;50.122;19.932;2022-10-16T14:26:23;98948.24;;;19.66;59.42
58919;BME280;44704;50.122;19.932;2022-10-16T14:29:20;98945.20;;;19.68;59.49
58919;BME280;44704;50.122;19.932;2022-10-16T14:32:20;98949.33;;;19.70;59.41
58919;BME280;44704;50.122;19.932;2022-10-16T14:34:52;98942.05;;;19.74;59.50
58919;BME280;44704;50.122;19.932;2022-10-16T14:37:23;98943.23;;;19.78;59.40
58919;BME280;44704;50.122;19.932;2022-10-16T14:39:51;98940.77;;;19.81;59.34
58919;BME280;44704;50.122;19.932;2022-10-16T14:42:21;98938.02;;;19.84;59.32
58919;BME280;44704;50.122;19.932;2022-10-16T14:44:51;98941.72;;;19.86;59.27
58919;BME280;44704;50.122;19.932;2022-10-16T14:47:22;98938.48;;;19.86;59.04